Time;durP1;ratioP1;P1;durP2;ratioP2;P2;SDS_P1;SDS_P2;PMS_P1;PMS_P2;Temp;Humidity;BMP_temperature;BMP_pressure;BME280_temperature;BME280_humidity;BME280_pressure;Samples;Min_cycle;Max_cycle;Signal;HPM_P1;HPM_P2
2022/11/22 00:01:01;;;;;;;10.43;9.83;;;9.40;39.10;;;;;;4954750;28;20679;-51
2022/11/22 00:03:27;;;;;;;9.83;9.17;;;9.20;39.20;;;;;;4951189;28;20484;-53
2022/11/22 00:05:53;;;;;;;11.10;10.50;;;9.00;40.20;;;;;;4958681;28;20933;-53
2022/11/22 00:08:18;;;;;;;10.30;9.63;;;8.90;40.40;;;;;;4959962;28;20182;-53
2022/11/22 00:10:44;;;;;;;10.70;10.10;;;9.00;40.20;;;;;;4953833;28;20628;-53
2022/11/22 00:13:10;;;;;;;10.80;10.37;;;8.90;39.90;;;;;;4949950;28;20194;-50
2022/11/22 00:15:35;;;;;;;10.30;9.80;;;8.90;40.30;;;;;;4958970;28;20193;-51
2022/11/22 00:18:01;;;;;;;10.07;9.60;;;8.90;41.50;;;;;;4953178;28;20183;-50
2022/11/22 00:20:27;;;;;;;10.00;9.33;;;9.00;40.50;;;;;;4948185;28;20187;-55
2022/11/22 00:22:52;;;;;;;10.37;9.97;;;9.20;40.50;;;;;;4948918;28;20202;-51
2022/11/22 00:25:18;;;;;;;10.53;9.60;;;9.40;40.90;;;;;;4950711;28;20179;-54
2022/11/22 00:27:43;;;;;;;9.80;9.30;;;9.50;39.60;;;;;;4959362;28;20183;-51
2022/11/22 00:30:09;;;;;;;9.87;9.30;;;9.70;39.40;;;;;;4961992;28;20532;-52
2022/11/22 00:32:35;;;;;;;10.40;10.00;;;9.80;39.40;;;;;;4958318;28;20183;-53
2022/11/22 00:35:01;;;;;;;9.70;9.30;;;9.90;38.00;;;;;;4950516;28;20971;-53
2022/11/22 00:37:27;;;;;;;10.60;9.93;;;10.00;36.40;;;;;;4947637;28;20186;-50
2022/11/22 00:39:52;;;;;;;10.70;10.10;;;10.00;36.90;;;;;;4954612;28;20179;-50
2022/11/22 00:42:18;;;;;;;11.03;10.53;;;9.80;36.60;;;;;;4959581;28;20221;-56
2022/11/22 00:44:44;;;;;;;9.50;9.10;;;9.50;37.40;;;;;;4957336;28;20183;-54
2022/11/22 00:47:09;;;;;;;9.57;9.17;;;9.30;38.20;;;;;;4948491;28;20187;-53
2022/11/22 00:49:35;;;;;;;10.30;9.73;;;9.20;38.30;;;;;;4950461;28;20182;-52
2022/11/22 00:52:00;;;;;;;10.27;9.83;;;9.10;39.10;;;;;;4945402;28;20187;-52
2022/11/22 00:54:26;;;;;;;10.60;10.00;;;9.10;39.60;;;;;;4946303;28;20211;-52
2022/11/22 00:56:52;;;;;;;9.70;9.30;;;9.00;39.90;;;;;;4954500;28;20232;-52
2022/11/22 00:59:17;;;;;;;9.93;9.53;;;9.00;40.40;;;;;;4955005;28;20601;-50
2022/11/22 01:01:43;;;;;;;9.70;9.20;;;9.20;40.60;;;;;;4941268;28;20199;-54
2022/11/22 01:04:08;;;;;;;9.43;8.83;;;9.30;40.00;;;;;;4948779;28;20186;-55
2022/11/22 01:06:34;;;;;;;10.07;9.57;;;9.30;40.20;;;;;;4943998;28;20194;-53
2022/11/22 01:09:00;;;;;;;9.80;9.20;;;9.20;39.90;;;;;;4948516;28;20179;-50
2022/11/22 01:11:26;;;;;;;10.97;10.17;;;9.00;40.30;;;;;;4950304;28;20179;-51
2022/11/22 01:13:52;;;;;;;10.13;9.23;;;8.90;40.50;;;;;;4952569;28;20422;-52
2022/11/22 01:16:18;;;;;;;9.37;8.97;;;8.90;41.70;;;;;;4947111;28;20210;-51
2022/11/22 01:18:44;;;;;;;8.90;8.50;;;9.00;41.20;;;;;;4952714;28;20424;-54
2022/11/22 01:21:10;;;;;;;10.90;10.33;;;9.10;41.80;;;;;;4948284;28;20183;-52
2022/11/22 01:23:36;;;;;;;9.67;9.20;;;9.10;41.30;;;;;;4948227;28;20471;-51
2022/11/22 01:26:02;;;;;;;10.10;9.60;;;9.00;40.80;;;;;;4953361;28;20191;-55
2022/11/22 01:28:28;;;;;;;10.27;9.67;;;8.90;41.70;;;;;;4946052;28;20603;-53
2022/11/22 01:30:54;;;;;;;10.13;9.63;;;8.80;41.90;;;;;;4944588;28;20518;-51
2022/11/22 01:33:20;;;;;;;9.97;9.47;;;8.90;42.50;;;;;;4952667;28;20189;-51
2022/11/22 01:35:46;;;;;;;9.90;9.40;;;8.90;41.70;;;;;;4946438;28;20179;-52
2022/11/22 01:38:12;;;;;;;9.80;9.40;;;8.90;42.90;;;;;;4955307;28;20430;-53
2022/11/22 01:40:37;;;;;;;10.60;10.10;;;8.90;42.50;;;;;;4950471;28;20478;-49
2022/11/22 01:43:17;;;;;;;10.30;9.70;;;8.90;42.30;;;;;;4945355;28;21012;-53
2022/11/22 01:45:56;;;;;;;9.93;9.43;;;9.00;42.40;;;;;;4951930;28;20561;-49
2022/11/22 01:48:25;;;;;;;10.37;9.70;;;9.20;41.90;;;;;;4941733;28;20422;-51
2022/11/22 01:51:01;;;;;;;10.07;9.57;;;9.20;42.40;;;;;;4951081;28;20493;-50
2022/11/22 01:53:34;;;;;;;10.60;10.10;;;9.20;42.20;;;;;;4956016;28;20425;-54
2022/11/22 01:56:02;;;;;;;10.80;10.27;;;9.20;42.40;;;;;;4949616;28;20425;-54
2022/11/22 01:58:32;;;;;;;10.27;9.87;;;9.30;42.00;;;;;;4946147;28;20840;-52
2022/11/22 02:00:57;;;;;;;10.00;9.60;;;9.30;42.00;;;;;;4943288;28;20422;-54
2022/11/22 02:03:27;;;;;;;9.80;9.40;;;9.30;42.00;;;;;;4948274;28;20470;-51
2022/11/22 02:05:53;;;;;;;10.30;9.90;;;9.30;42.00;;;;;;4957552;28;20179;-54
2022/11/22 02:08:25;;;;;;;10.17;9.77;;;9.20;41.90;;;;;;4950250;28;20486;-53
2022/11/22 02:10:54;;;;;;;10.50;9.90;;;9.20;41.90;;;;;;4949764;28;20504;-53
2022/11/22 02:13:21;;;;;;;10.13;9.53;;;9.20;41.90;;;;;;4940249;28;20431;-51
2022/11/22 02:15:49;;;;;;;9.47;9.07;;;9.10;41.90;;;;;;4949664;28;20419;-52
2022/11/22 02:18:14;;;;;;;10.20;9.60;;;9.10;42.70;;;;;;4940832;28;20529;-51
2022/11/22 02:20:40;;;;;;;10.47;9.93;;;9.00;42.90;;;;;;4947534;28;21010;-52
2022/11/22 02:23:11;;;;;;;11.03;10.20;;;9.00;43.80;;;;;;4939900;28;20217;-51
2022/11/22 02:25:40;;;;;;;9.93;9.40;;;9.10;44.30;;;;;;4945109;28;20183;-51
2022/11/22 02:28:10;;;;;;;11.13;10.43;;;9.00;43.80;;;;;;4950828;28;20788;-51
2022/11/22 02:30:36;;;;;;;9.90;9.50;;;9.10;44.10;;;;;;4942872;28;20444;-52
2022/11/22 02:33:02;;;;;;;9.70;9.30;;;9.20;43.90;;;;;;4950589;28;20418;-52
2022/11/22 02:35:29;;;;;;;10.30;9.80;;;9.00;44.20;;;;;;4952716;28;20182;-53
2022/11/22 02:38:03;;;;;;;10.20;9.80;;;9.00;44.90;;;;;;4947906;28;20784;-53
2022/11/22 02:40:35;;;;;;;10.00;9.50;;;9.00;45.00;;;;;;4947006;28;20864;-55
2022/11/22 02:43:03;;;;;;;9.18;8.88;;;9.10;44.60;;;;;;4902927;28;1099469;-54
2022/11/22 02:45:29;;;;;;;10.00;9.60;;;9.10;45.00;;;;;;4948177;28;20214;-54
2022/11/22 02:48:07;;;;;;;9.90;9.40;;;9.10;45.10;;;;;;4947777;28;20454;-55
2022/11/22 02:50:33;;;;;;;10.43;9.90;;;9.00;45.30;;;;;;4950259;28;20760;-51
2022/11/22 02:52:59;;;;;;;8.93;8.63;;;9.10;45.20;;;;;;4951387;28;20484;-52
2022/11/22 02:55:25;;;;;;;9.40;9.00;;;9.30;44.90;;;;;;4944578;28;20791;-55
2022/11/22 02:57:50;;;;;;;9.80;9.40;;;9.40;43.40;;;;;;4949923;28;20310;-51
2022/11/22 03:00:16;;;;;;;9.50;9.00;;;9.20;43.60;;;;;;4950244;28;20191;-54
2022/11/22 03:02:42;;;;;;;9.50;9.00;;;9.20;44.00;;;;;;4954625;28;20207;-53
2022/11/22 03:05:07;;;;;;;9.20;8.73;;;9.00;44.70;;;;;;4932953;29;20187;-53
2022/11/22 03:07:33;;;;;;;9.20;8.80;;;9.00;44.70;;;;;;4947977;28;20211;-53
2022/11/22 03:09:59;;;;;;;9.70;9.27;;;8.80;45.00;;;;;;4952423;28;20270;-53
2022/11/22 03:12:24;;;;;;;9.37;8.87;;;8.80;45.70;;;;;;4940899;28;20621;-53
2022/11/22 03:14:50;;;;;;;8.87;8.53;;;8.90;46.20;;;;;;4951416;28;20237;-54
2022/11/22 03:17:15;;;;;;;9.40;9.00;;;9.10;44.90;;;;;;4943939;28;20659;-51
2022/11/22 03:19:41;;;;;;;9.17;8.87;;;9.20;45.50;;;;;;4950712;28;20185;-52
2022/11/22 03:22:07;;;;;;;8.90;8.40;;;9.20;44.70;;;;;;4942375;28;20314;-54
2022/11/22 03:24:33;;;;;;;9.33;8.93;;;9.40;45.00;;;;;;4952028;28;20179;-54
2022/11/22 03:26:58;;;;;;;9.43;9.03;;;9.40;44.20;;;;;;4950212;28;20558;-53
2022/11/22 03:29:24;;;;;;;8.80;8.50;;;9.30;43.60;;;;;;4943192;28;20183;-54
2022/11/22 03:31:49;;;;;;;9.87;9.47;;;9.30;44.20;;;;;;4947008;28;20192;-53
2022/11/22 03:34:15;;;;;;;9.57;9.17;;;9.50;44.30;;;;;;4968104;28;20573;-51
2022/11/22 03:36:41;;;;;;;10.30;9.80;;;9.60;43.50;;;;;;4951915;28;20183;-54
2022/11/22 03:39:07;;;;;;;9.93;9.53;;;9.80;42.40;;;;;;4947573;28;20182;-52
2022/11/22 03:41:32;;;;;;;10.33;9.93;;;9.80;42.00;;;;;;4941751;28;20214;-52
2022/11/22 03:43:58;;;;;;;9.97;9.57;;;9.60;42.20;;;;;;4952949;28;20206;-53
2022/11/22 03:46:23;;;;;;;10.50;9.90;;;9.50;42.40;;;;;;4947758;28;20198;-51
2022/11/22 03:48:49;;;;;;;10.57;10.07;;;9.50;43.50;;;;;;4952640;28;20610;-53
2022/11/22 03:51:15;;;;;;;9.87;9.27;;;9.60;43.50;;;;;;4955934;28;20607;-54
2022/11/22 03:53:40;;;;;;;9.70;9.30;;;9.70;42.30;;;;;;4948369;28;20182;-53
2022/11/22 03:56:06;;;;;;;9.90;9.60;;;9.90;42.00;;;;;;4952155;28;20618;-54
2022/11/22 03:58:32;;;;;;;10.60;10.20;;;10.00;40.20;;;;;;4945994;28;20182;-50
2022/11/22 04:00:58;;;;;;;10.07;9.60;;;10.10;39.90;;;;;;4950049;28;20187;-55
2022/11/22 04:03:24;;;;;;;10.60;10.03;;;10.20;39.50;;;;;;4955763;28;20473;-51
2022/11/22 04:05:50;;;;;;;10.40;9.80;;;10.30;39.00;;;;;;4945827;28;20421;-53
2022/11/22 04:08:15;;;;;;;10.57;10.17;;;10.30;38.60;;;;;;4953389;28;20426;-54
2022/11/22 04:10:41;;;;;;;11.00;10.50;;;10.30;38.80;;;;;;4947814;28;20218;-55
2022/11/22 04:13:07;;;;;;;10.03;9.63;;;10.50;38.30;;;;;;4949609;28;20186;-53
2022/11/22 04:15:33;;;;;;;10.00;9.60;;;10.60;37.70;;;;;;4950246;28;20187;-53
2022/11/22 04:17:58;;;;;;;10.33;9.80;;;10.60;37.70;;;;;;4948681;28;20492;-55
2022/11/22 04:23:18;;;;;;;10.20;9.80;;;10.70;37.10;;;;;;4954316;28;20217;-54
2022/11/22 04:25:47;;;;;;;11.30;10.90;;;10.80;36.50;;;;;;4950002;28;20430;-50
2022/11/22 04:28:14;;;;;;;10.93;10.43;;;10.80;36.20;;;;;;4951674;28;20510;-52
2022/11/22 04:33:24;;;;;;;11.13;10.63;;;10.10;38.50;;;;;;4963586;28;20437;-53
2022/11/22 04:35:50;;;;;;;10.67;10.27;;;9.80;40.60;;;;;;4956482;28;20895;-54
2022/11/22 04:38:17;;;;;;;11.50;11.10;;;9.70;41.70;;;;;;4952470;28;20223;-53
2022/11/22 04:40:43;;;;;;;12.07;11.47;;;9.70;42.30;;;;;;4954794;28;20432;-51
2022/11/22 04:46:14;;;;;;;11.50;10.77;;;9.60;42.20;;;;;;4960787;28;20553;-51
2022/11/22 04:48:40;;;;;;;11.10;10.37;;;9.50;42.10;;;;;;4948050;28;20513;-51
2022/11/22 04:53:51;;;;;;;10.00;9.70;;;9.60;42.60;;;;;;4953977;28;20413;-51
2022/11/22 04:56:17;;;;;;;10.90;10.37;;;9.60;42.20;;;;;;4960329;28;21492;-52
2022/11/22 04:58:43;;;;;;;9.63;9.20;;;9.60;42.20;;;;;;4958948;28;20640;-52
2022/11/22 05:01:09;;;;;;;10.80;10.20;;;9.60;42.20;;;;;;4958762;28;20472;-53
2022/11/22 05:03:35;;;;;;;11.17;10.47;;;9.60;42.20;;;;;;4954796;28;20831;-52
2022/11/22 05:06:05;;;;;;;11.30;10.60;;;9.70;42.30;;;;;;4954378;28;20426;-54
2022/11/22 05:08:30;;;;;;;11.40;10.70;;;9.70;41.80;;;;;;4955380;28;20547;-52
2022/11/22 05:10:56;;;;;;;11.07;10.57;;;9.90;41.40;;;;;;4956825;28;20427;-54
2022/11/22 05:13:41;;;;;;;10.33;9.93;;;9.90;40.00;;;;;;4958871;28;20175;-55
2022/11/22 05:16:09;;;;;;;10.97;10.47;;;9.70;40.60;;;;;;4962104;28;20198;-51
2022/11/22 05:18:35;;;;;;;11.20;10.60;;;9.50;41.50;;;;;;4953380;28;20423;-51
2022/11/22 05:21:09;;;;;;;11.10;10.60;;;9.30;41.80;;;;;;4948059;28;20447;-54
2022/11/22 05:23:53;;;;;;;11.90;11.30;;;9.10;41.80;;;;;;4958882;28;20520;-53
2022/11/22 05:26:23;;;;;;;11.50;11.07;;;9.00;43.20;;;;;;4954765;28;20457;-51
2022/11/22 05:28:48;;;;;;;11.53;10.93;;;8.80;44.60;;;;;;4958690;28;20943;-50
2022/11/22 05:31:17;;;;;;;10.90;10.33;;;8.80;44.10;;;;;;4956690;28;20427;-50
2022/11/22 05:33:44;;;;;;;10.40;10.00;;;8.70;44.30;;;;;;4970031;28;20183;-51
2022/11/22 05:36:11;;;;;;;11.87;11.30;;;8.60;44.60;;;;;;4960653;28;20454;-51
2022/11/22 05:38:37;;;;;;;11.30;10.80;;;8.50;45.20;;;;;;4965356;28;20429;-52
2022/11/22 05:41:05;;;;;;;10.87;10.37;;;8.50;45.80;;;;;;4962910;28;20950;-49
2022/11/22 05:43:31;;;;;;;11.93;11.23;;;8.50;45.50;;;;;;4961824;28;20978;-50
2022/11/22 05:46:15;;;;;;;11.83;10.83;;;8.60;46.00;;;;;;4961683;28;20553;-49
2022/11/22 05:48:43;;;;;;;11.13;10.47;;;8.80;45.30;;;;;;4954687;28;20182;-53
2022/11/22 05:51:10;;;;;;;10.30;9.83;;;8.80;45.30;;;;;;4960616;28;20777;-49
2022/11/22 05:53:36;;;;;;;10.93;10.23;;;9.10;45.40;;;;;;4954483;28;20498;-52
2022/11/22 05:56:04;;;;;;;12.83;11.80;;;9.40;43.40;;;;;;4962124;28;20919;-57
2022/11/22 05:58:30;;;;;;;11.07;10.53;;;9.40;42.10;;;;;;4959614;28;20453;-57
2022/11/22 06:00:55;;;;;;;10.60;10.00;;;9.20;42.90;;;;;;4958342;28;20430;-57
2022/11/22 06:03:21;;;;;;;11.50;10.67;;;9.30;42.90;;;;;;4945708;28;20198;-57
2022/11/22 06:05:51;;;;;;;11.70;10.80;;;9.30;42.00;;;;;;4950870;28;20664;-58
2022/11/22 06:08:17;;;;;;;12.57;11.87;;;9.10;43.00;;;;;;4950042;28;20362;-56
2022/11/22 06:10:43;;;;;;;12.33;11.57;;;9.10;43.20;;;;;;4963105;28;20430;-57
2022/11/22 06:13:08;;;;;;;11.50;10.90;;;9.10;43.80;;;;;;4962370;28;20179;-55
2022/11/22 06:15:34;;;;;;;11.57;10.63;;;9.10;43.60;;;;;;4968808;28;20600;-54
2022/11/22 06:17:59;;;;;;;11.37;10.83;;;9.20;43.60;;;;;;4969762;28;20179;-56
2022/11/22 06:20:25;;;;;;;11.70;11.00;;;9.10;44.20;;;;;;4968618;28;20179;-55
2022/11/22 06:22:51;;;;;;;12.80;12.10;;;9.00;43.70;;;;;;4970053;28;20557;-55
2022/11/22 06:25:16;;;;;;;16.57;15.37;;;9.00;44.20;;;;;;4969855;28;20188;-55
2022/11/22 06:27:42;;;;;;;15.10;14.20;;;8.80;44.60;;;;;;4968524;28;20210;-55
2022/11/22 06:30:08;;;;;;;14.27;13.47;;;8.80;45.20;;;;;;4969235;28;20182;-55
2022/11/22 06:32:34;;;;;;;14.73;13.50;;;8.90;45.60;;;;;;4972337;28;20238;-56
2022/11/22 06:35:01;;;;;;;13.03;12.30;;;9.20;44.70;;;;;;4970616;28;20418;-56
2022/11/22 06:37:27;;;;;;;13.20;12.30;;;9.40;43.60;;;;;;4963586;28;20426;-55
2022/11/22 06:39:53;;;;;;;12.40;11.70;;;9.60;42.20;;;;;;4964110;28;20468;-55
2022/11/22 06:42:18;;;;;;;12.77;11.87;;;9.70;42.20;;;;;;4969622;28;20470;-55
2022/11/22 06:44:44;;;;;;;11.47;10.70;;;9.80;40.90;;;;;;4971416;28;20171;-55
2022/11/22 06:47:09;;;;;;;12.80;11.87;;;9.60;41.70;;;;;;4971464;28;20209;-55
2022/11/22 06:49:35;;;;;;;13.27;12.17;;;9.40;41.80;;;;;;4970210;28;20278;-54
2022/11/22 06:52:01;;;;;;;13.90;12.77;;;9.20;41.90;;;;;;4970779;28;20182;-53
2022/11/22 06:54:26;;;;;;;13.87;12.80;;;9.10;42.50;;;;;;4969947;28;20530;-55
2022/11/22 06:56:52;;;;;;;13.50;12.80;;;9.00;42.80;;;;;;4969533;28;20648;-51
2022/11/22 06:59:18;;;;;;;12.73;12.00;;;8.90;43.40;;;;;;4966138;28;20182;-51
2022/11/22 07:01:43;;;;;;;13.43;12.60;;;8.80;44.20;;;;;;4967409;28;20535;-56
2022/11/22 07:04:09;;;;;;;11.93;11.33;;;8.70;44.80;;;;;;4969110;28;20182;-56
2022/11/22 07:06:37;;;;;;;12.73;11.83;;;8.60;44.50;;;;;;4968124;28;20206;-56
2022/11/22 07:09:06;;;;;;;13.87;12.77;;;8.60;45.10;;;;;;4971278;28;20481;-55
2022/11/22 07:11:33;;;;;;;12.47;11.67;;;8.70;44.60;;;;;;4970022;28;20433;-55
2022/11/22 07:14:00;;;;;;;12.70;11.80;;;8.80;45.30;;;;;;4969765;28;20437;-53
2022/11/22 07:16:26;;;;;;;14.33;13.43;;;9.20;44.20;;;;;;4968980;28;20425;-52
2022/11/22 07:18:51;;;;;;;13.53;12.57;;;9.20;42.70;;;;;;4959063;28;20417;-54
2022/11/22 07:21:18;;;;;;;12.67;11.97;;;9.40;42.10;;;;;;4972988;28;20655;-54
2022/11/22 07:23:46;;;;;;;13.60;12.47;;;9.50;42.10;;;;;;4974075;28;20210;-54
2022/11/22 07:26:13;;;;;;;13.07;12.17;;;9.70;41.50;;;;;;4973821;28;20832;-55
2022/11/22 07:28:39;;;;;;;12.07;11.30;;;9.90;40.40;;;;;;4973521;28;20433;-55
2022/11/22 07:31:07;;;;;;;16.30;15.23;;;10.00;38.60;;;;;;4975402;28;20414;-53
2022/11/22 07:33:33;;;;;;;13.67;12.70;;;10.00;37.70;;;;;;4973359;28;20476;-59
2022/11/22 07:36:07;;;;;;;12.93;12.03;;;10.00;37.70;;;;;;4971960;28;20426;-54
2022/11/22 07:38:33;;;;;;;13.07;11.90;;;9.70;39.50;;;;;;4973390;28;20457;-54
2022/11/22 07:40:59;;;;;;;13.53;12.43;;;9.50;40.10;;;;;;4972461;28;20453;-53
2022/11/22 07:43:25;;;;;;;12.60;12.00;;;9.50;40.30;;;;;;4980693;28;20461;-54
2022/11/22 07:45:50;;;;;;;13.40;12.13;;;9.50;41.00;;;;;;4992666;28;20412;-51
2022/11/22 07:48:16;;;;;;;12.73;12.00;;;9.60;40.60;;;;;;4993208;28;20579;-54
2022/11/22 07:50:42;;;;;;;13.37;12.43;;;9.50;40.80;;;;;;5005445;22;20229;-77
2022/11/22 07:53:08;;;;;;;13.20;12.30;;;9.50;40.50;;;;;;4977230;28;20444;-77
2022/11/22 07:55:34;;;;;;;17.13;13.17;;;9.50;41.00;;;;;;4969085;28;20418;-79
2022/11/22 07:58:00;;;;;;;14.70;13.60;;;9.60;40.70;;;;;;4973423;28;20830;-79
2022/11/22 08:00:26;;;;;;;14.57;13.30;;;9.70;40.00;;;;;;4973341;28;20509;-78
2022/11/22 08:02:52;;;;;;;13.40;12.50;;;9.80;39.20;;;;;;4973003;28;20715;-77
2022/11/22 08:05:18;;;;;;;14.20;13.10;;;9.80;37.40;;;;;;4971730;28;20418;-78
2022/11/22 08:07:49;;;;;;;13.47;12.67;;;9.70;39.20;;;;;;4972346;28;20180;-77
2022/11/22 08:10:15;;;;;;;13.70;12.87;;;9.60;39.20;;;;;;4971077;28;20469;-77
2022/11/22 08:12:41;;;;;;;13.20;12.30;;;9.50;39.50;;;;;;4970698;28;20414;-77
2022/11/22 08:15:07;;;;;;;12.70;12.00;;;9.60;40.40;;;;;;4974691;28;20979;-78
2022/11/22 08:17:32;;;;;;;13.30;12.47;;;9.70;39.90;;;;;;4971084;28;20792;-77
2022/11/22 08:19:58;;;;;;;13.10;12.07;;;9.70;38.60;;;;;;4971958;28;20422;-79
2022/11/22 08:22:24;;;;;;;12.60;11.80;;;9.90;39.40;;;;;;4974288;28;20453;-76
2022/11/22 08:24:49;;;;;;;14.07;13.20;;;10.00;37.70;;;;;;4971867;28;20174;-77
2022/11/22 08:27:15;;;;;;;12.87;12.17;;;10.00;37.10;;;;;;4973836;28;20183;-79
2022/11/22 08:29:40;;;;;;;13.20;12.30;;;9.90;38.20;;;;;;4973402;28;20542;-76
2022/11/22 08:32:06;;;;;;;13.20;12.50;;;9.60;38.40;;;;;;4973077;28;20206;-77
2022/11/22 08:34:31;;;;;;;12.90;12.30;;;9.60;38.50;;;;;;4973312;28;20178;-78
2022/11/22 08:36:57;;;;;;;13.17;12.27;;;9.40;39.60;;;;;;4973554;28;20183;-77
2022/11/22 08:39:22;;;;;;;13.57;12.77;;;9.40;39.50;;;;;;4976510;28;20254;-77
2022/11/22 08:41:48;;;;;;;13.43;12.73;;;9.40;40.00;;;;;;4972681;28;20212;-79
2022/11/22 08:44:13;;;;;;;13.40;12.70;;;9.40;39.30;;;;;;4973818;28;20275;-79
2022/11/22 08:46:39;;;;;;;14.30;13.10;;;9.20;41.20;;;;;;4977789;28;20182;-78
2022/11/22 08:49:05;;;;;;;17.30;16.10;;;9.20;40.70;;;;;;4980299;28;20266;-79
2022/11/22 08:51:31;;;;;;;13.80;12.90;;;9.30;41.00;;;;;;4987110;28;20214;-77
2022/11/22 08:53:57;;;;;;;14.07;13.07;;;9.40;40.10;;;;;;4979391;28;20426;-77
2022/11/22 08:56:23;;;;;;;13.63;12.87;;;9.30;40.30;;;;;;4976035;28;20425;-78
2022/11/22 08:58:48;;;;;;;13.73;12.83;;;9.40;40.40;;;;;;4976379;28;20783;-77
2022/11/22 09:01:16;;;;;;;14.20;13.50;;;9.50;40.50;;;;;;4971579;28;20217;-76
2022/11/22 09:03:43;;;;;;;13.10;12.30;;;9.50;39.90;;;;;;4974544;28;20210;-77
2022/11/22 09:06:12;;;;;;;13.90;12.83;;;9.40;39.80;;;;;;4972458;28;20430;-78
2022/11/22 09:08:37;;;;;;;15.60;13.90;;;9.30;40.00;;;;;;4974818;28;20797;-77
2022/11/22 09:11:06;;;;;;;12.50;11.90;;;9.30;40.50;;;;;;4971710;28;21032;-78
2022/11/22 09:13:32;;;;;;;13.53;12.60;;;9.40;40.10;;;;;;4988040;28;20185;-78
2022/11/22 09:16:05;;;;;;;13.70;12.90;;;9.40;40.00;;;;;;4977784;28;20516;-78
2022/11/22 09:18:36;;;;;;;13.83;12.83;;;9.40;40.10;;;;;;4983407;28;20871;-78
2022/11/22 09:21:07;;;;;;;13.40;12.50;;;9.60;39.90;;;;;;4971845;28;20480;-78
2022/11/22 09:23:33;;;;;;;13.00;12.30;;;9.60;39.70;;;;;;4989458;28;20474;-78
2022/11/22 09:26:04;;;;;;;13.10;11.80;;;9.60;39.50;;;;;;4989136;28;20425;-78
2022/11/22 09:28:31;;;;;;;13.90;12.77;;;9.50;39.60;;;;;;4974383;28;20434;-78
2022/11/22 09:31:06;;;;;;;12.73;12.03;;;9.30;40.20;;;;;;4971313;28;20501;-78
2022/11/22 09:33:35;;;;;;;14.00;12.70;;;9.30;41.10;;;;;;4974183;28;20425;-78
2022/11/22 09:36:06;;;;;;;12.80;12.10;;;9.40;40.80;;;;;;4976375;28;20445;-79
2022/11/22 09:38:32;;;;;;;12.67;11.80;;;9.50;40.50;;;;;;4975917;28;20982;-78
2022/11/22 09:41:01;;;;;;;12.80;11.67;;;9.40;40.70;;;;;;4975859;28;20446;-79
2022/11/22 09:43:47;;;;;;;13.23;12.40;;;9.30;41.20;;;;;;4970499;28;20509;-79
2022/11/22 09:46:54;;;;;;;13.53;12.37;;;9.40;41.00;;;;;;4972556;28;20422;-80
2022/11/22 09:49:58;;;;;;;13.33;12.43;;;9.30;41.20;;;;;;4954658;28;20935;-79
2022/11/22 09:52:50;;;;;;;12.47;11.67;;;9.20;41.70;;;;;;4972426;28;20500;-78
2022/11/22 09:55:33;;;;;;;14.43;13.20;;;9.10;41.80;;;;;;4973382;28;20469;-81
2022/11/22 09:58:11;;;;;;;12.80;12.10;;;9.00;42.50;;;;;;4982598;28;20429;-77
2022/11/22 10:00:36;;;;;;;14.10;12.80;;;9.10;42.00;;;;;;4977730;28;20441;-80
2022/11/22 10:03:33;;;;;;;13.37;12.57;;;9.20;41.90;;;;;;4980160;28;20464;-78
2022/11/22 10:06:05;;;;;;;13.70;12.60;;;9.20;41.40;;;;;;4968439;28;20310;-77
2022/11/22 10:08:50;;;;;;;12.73;11.83;;;9.30;42.00;;;;;;4974551;28;20409;-77
2022/11/22 10:11:44;;;;;;;13.07;12.27;;;9.40;42.00;;;;;;4960701;28;20455;-77
2022/11/22 10:14:34;;;;;;;12.50;11.70;;;9.50;40.90;;;;;;4960259;28;20414;-78
2022/11/22 10:17:06;;;;;;;12.43;11.77;;;9.40;40.10;;;;;;4975782;28;20440;-77
2022/11/22 10:19:49;;;;;;;13.37;12.37;;;9.30;40.00;;;;;;4973820;28;20425;-78
2022/11/22 10:22:15;;;;;;;12.83;11.87;;;9.30;40.90;;;;;;4977505;28;20952;-78
2022/11/22 10:24:42;;;;;;;12.67;11.60;;;9.30;40.40;;;;;;4977310;28;20914;-78
2022/11/22 10:27:14;;;;;;;12.67;11.67;;;9.30;39.70;;;;;;4971079;28;20512;-78
2022/11/22 10:29:58;;;;;;;12.23;11.60;;;9.20;40.70;;;;;;4969116;28;20792;-78
2022/11/22 10:32:31;;;;;;;12.13;11.40;;;9.30;40.40;;;;;;4977451;28;20437;-78
2022/11/22 10:35:03;;;;;;;12.90;11.87;;;9.30;40.60;;;;;;4974674;28;20425;-77
2022/11/22 10:37:48;;;;;;;12.83;12.13;;;9.30;39.50;;;;;;4980516;28;20512;-78
2022/11/22 10:40:48;;;;;;;13.03;12.20;;;9.30;39.50;;;;;;4976796;28;20422;-78
2022/11/22 10:43:35;;;;;;;12.63;11.93;;;9.40;39.80;;;;;;4976248;28;20527;-78
2022/11/22 10:46:31;;;;;;;11.70;11.10;;;9.60;39.50;;;;;;4973239;28;20422;-78
2022/11/22 10:49:05;;;;;;;12.43;11.60;;;9.50;38.10;;;;;;4971537;28;20514;-79
2022/11/22 10:51:55;;;;;;;12.50;11.50;;;9.40;38.50;;;;;;4972047;28;20468;-77
2022/11/22 10:54:53;;;;;;;12.30;11.30;;;9.60;38.60;;;;;;4977817;28;20435;-79
2022/11/22 10:57:36;;;;;;;12.90;12.10;;;9.60;37.80;;;;;;4935517;28;20528;-79
2022/11/22 11:00:10;;;;;;;11.90;11.30;;;9.50;37.10;;;;;;4964580;28;20426;-78
2022/11/22 11:02:56;;;;;;;12.57;11.57;;;9.60;37.40;;;;;;4974808;28;20468;-78
2022/11/22 11:05:29;;;;;;;13.23;12.03;;;9.70;36.90;;;;;;4976644;28;20908;-78
2022/11/22 11:07:55;;;;;;;11.97;11.17;;;9.70;36.40;;;;;;4977346;28;20492;-78
2022/11/22 11:10:25;;;;;;;12.77;11.97;;;9.70;34.80;;;;;;4975422;28;20498;-78
2022/11/22 11:13:13;;;;;;;12.17;11.47;;;9.80;34.40;;;;;;4985954;28;20273;-76
2022/11/22 11:15:45;;;;;;;12.87;11.97;;;9.60;33.50;;;;;;4979507;28;20424;-78
2022/11/22 11:18:34;;;;;;;12.87;11.90;;;9.60;33.30;;;;;;4994694;28;20421;-78
2022/11/22 11:21:00;;;;;;;11.37;10.57;;;9.70;33.00;;;;;;4985750;28;20440;-79
2022/11/22 11:23:25;;;;;;;12.80;12.10;;;9.70;32.20;;;;;;4983699;28;20460;-78
2022/11/22 11:25:51;;;;;;;11.87;11.20;;;9.50;32.00;;;;;;4975609;28;20183;-78
2022/11/22 11:28:24;;;;;;;13.30;12.40;;;9.50;32.00;;;;;;4983392;28;20206;-78
2022/11/22 11:30:55;;;;;;;12.77;12.07;;;9.50;32.00;;;;;;4980414;28;20198;-78
2022/11/22 11:33:30;;;;;;;12.13;11.53;;;9.40;31.50;;;;;;4971822;28;20429;-79
2022/11/22 11:36:18;;;;;;;12.00;11.40;;;9.30;31.40;;;;;;4972139;28;20997;-77
2022/11/22 11:38:43;;;;;;;12.17;11.40;;;9.30;31.90;;;;;;4972392;28;20829;-78
2022/11/22 11:41:31;;;;;;;11.13;10.63;;;9.20;31.80;;;;;;4972530;28;20448;-78
2022/11/22 11:44:01;;;;;;;11.93;11.33;;;9.20;31.80;;;;;;4974443;28;20207;-79
2022/11/22 11:46:38;;;;;;;12.47;11.67;;;9.10;32.30;;;;;;4975321;28;20441;-78
2022/11/22 11:49:15;;;;;;;12.33;11.33;;;9.20;31.80;;;;;;4973568;28;20467;-77
2022/11/22 11:51:47;;;;;;;12.10;11.30;;;9.10;31.70;;;;;;4975199;28;20464;-79
2022/11/22 11:54:28;;;;;;;12.53;11.50;;;9.20;31.80;;;;;;4977782;28;20473;-77
2022/11/22 11:57:04;;;;;;;12.30;11.50;;;9.20;31.70;;;;;;4976554;28;20497;-78
2022/11/22 11:59:38;;;;;;;12.80;11.97;;;9.20;31.80;;;;;;4976076;28;20426;-79
2022/11/22 12:02:18;;;;;;;11.77;11.00;;;9.30;31.50;;;;;;4970019;28;20509;-79
2022/11/22 12:04:47;;;;;;;11.03;10.43;;;9.30;30.40;;;;;;4976062;28;20509;-78
2022/11/22 12:07:25;;;;;;;13.00;11.80;;;9.30;30.60;;;;;;4974341;28;20446;-78
2022/11/22 12:09:53;;;;;;;10.70;10.10;;;9.40;30.50;;;;;;4972697;28;20417;-77
2022/11/22 12:12:56;;;;;;;9.70;9.20;;;9.30;30.00;;;;;;4973780;28;20446;-79
2022/11/22 12:15:28;;;;;;;10.70;10.13;;;9.20;29.40;;;;;;4983264;28;20475;-77
2022/11/22 12:18:03;;;;;;;10.80;10.30;;;9.20;30.10;;;;;;4975948;28;20421;-78
2022/11/22 12:20:46;;;;;;;10.27;9.67;;;9.30;30.00;;;;;;4984682;28;20455;-78
2022/11/22 12:23:36;;;;;;;10.80;9.90;;;9.40;29.90;;;;;;4977334;28;20473;-78
2022/11/22 12:26:02;;;;;;;10.20;9.70;;;9.40;29.90;;;;;;4970027;28;20454;-78
2022/11/22 12:28:28;;;;;;;9.93;9.53;;;9.40;29.70;;;;;;4973357;28;20442;-78
2022/11/22 12:31:41;;;;;;;10.97;10.10;;;9.50;29.40;;;;;;4971562;28;20206;-78
2022/11/22 12:34:19;;;;;;;11.20;10.50;;;9.50;29.60;;;;;;4974479;28;20837;-78
2022/11/22 12:37:19;;;;;;;11.97;11.03;;;9.40;29.30;;;;;;4983204;28;20426;-79
2022/11/22 12:39:49;;;;;;;11.00;10.40;;;9.50;28.90;;;;;;4982352;28;20413;-78
2022/11/22 12:42:42;;;;;;;11.23;10.40;;;9.40;29.40;;;;;;4976903;28;20481;-78
2022/11/22 12:45:42;;;;;;;10.10;9.63;;;9.40;29.20;;;;;;4974959;28;20852;-80
2022/11/22 12:48:39;;;;;;;10.70;9.90;;;9.40;29.60;;;;;;4962699;28;20841;-78
2022/11/22 12:51:33;;;;;;;11.50;10.80;;;9.40;29.10;;;;;;4979486;28;20465;-80
2022/11/22 12:54:05;;;;;;;12.03;11.33;;;9.40;29.40;;;;;;4980169;28;20453;-80
2022/11/22 12:56:52;;;;;;;11.07;10.30;;;9.30;29.60;;;;;;4962557;28;20465;-81
2022/11/22 12:59:57;;;;;;;11.43;10.93;;;9.40;29.80;;;;;;4978854;28;20452;-79
2022/11/22 13:02:36;;;;;;;12.50;11.60;;;9.30;29.90;;;;;;4978673;28;20518;-79
2022/11/22 13:05:29;;;;;;;12.17;11.20;;;9.40;29.80;;;;;;4958255;28;20430;-79
2022/11/22 13:08:24;;;;;;;11.67;11.07;;;9.40;29.20;;;;;;4969375;28;20422;-78